首页
METAR-TAF:

METAR-TAF

机场 :

馬里伯爾愛德華·盧希揚機場

马里博尔, 斯洛文尼亚

纬度: 46-29N, 经度: 015-41E, 海拔: 264米

当前天气观测

该预报发布于29分钟前的08:30 UTC
风速4节,风向,在东南西转西南之间变化
温度 30°C
湿度 59%
气压 1020 hPa
能见度10公里或以上
1500米以下无云,无积雨云

METAR: LJMB 270830Z 19004KT 140V240 CAVOK 30/21 Q1020

时间: 10:59 (08:59 UTC)

预报

该预报发布于59分钟前的08:00 UTC
预报有效从27日的 09点(UTC)到 28日的 09点(UTC)
风速2节,风向多变
能见度10公里或以上
1500米以下无云,无积雨云
成为
从 27日的 09点(UTC)到 27日的 10点(UTC)
风速5节,风向南转南东
少量云层高于5000英尺
短暂存在
从 27日的 14点(UTC)到 27日的 23点(UTC)
风速15节,风向,有时为35节阵风
能見度: 4000
多云层高于5000英尺, 积雨云.
阴天层高于9000英尺
雷暴, 大雨
成为
从 27日的 18点(UTC)到 27日的 21点(UTC)
风速5节,风向北转东北

TAF: LJMB 270800Z 2709/2809 VRB02KT CAVOK BECMG 2709/2710 16005KT FEW050 TEMPO 2714/2723 36015G35KT 4000 +TSRA BKN050CB OVC090 BECMG 2718/2721 03005KT

超过4000个机场的气象观测和天气预报(METAR&TAF报告)。

可查询的气象台以黄色和红色小点在地图上表示。

将鼠标移到小点上方,可查看气象台名称。

然后点击查看天气观测和预报。

如需切换地图:点击带黑十字的绿色按钮放大地图;点击带横线的绿色按钮缩小地图;或者点击绿色箭头查看邻近地区的地图。


METAR-TAF: